Last 24 Hours

Pinyon

10 Minute Data | America/Los_Angeles
as of 5/8/26 7:33 AM PDT
Date & Time Temp (°F) Dew Pt (°F) RH (%) Wind Spd (mph) Wind Dir (°) Wind Gust (mph) Wind Gst Dir (°) Daily Max Temp (°F) Daily Min Temp (°F)
5/8/26 - 0730 71.7 28.6 20 10.2 NNW | 332 15.3 NNW | 339 71.9 67.1
5/8/26 - 0720 71.3 28.2 20 11.2 NNW | 342 17.5 NNW | 337 71.7 67.1
5/8/26 - 0710 70.4 28.6 21 10.5 NNW | 339 15.2 NNW | 341 70.8 67.1
5/8/26 - 0700 69.6 28.9 22 11.1 NNW | 331 16.7 NW | 323 69.8 67.1
5/8/26 - 0650 69.2 28.9 22 11.4 NNW | 329 16.6 NNW | 332 69.6 67.1
5/8/26 - 0640 68.6 28.8 22 12.8 NNW | 328 20.1 NNW | 329 68.8 67.1
5/8/26 - 0630 68.4 28.5 22 13.4 NNW | 328 20.1 NNW | 331 68.5 67.1
5/8/26 - 0620 68.3 28.2 22 13.7 NW | 324 19.1 NW | 318 68.5 67.1
5/8/26 - 0610 68.0 28.1 22 12.2 NNW | 331 16.6 NNW | 333 68.4 67.1
5/8/26 - 0600 68.2 28.2 22 12.2 NNW | 328 16.9 NW | 324 68.2 67.1
5/8/26 - 0550 67.9 28.6 23 11.0 NNW | 330 18.0 NW | 326 68.2 67.1
5/8/26 - 0540 68.1 28.9 23 11.5 NW | 326 16.7 NW | 324 68.2 67.1
5/8/26 - 0530 67.8 29.3 24 10.0 NNW | 329 14.3 NNW | 327 68.2 67.1
5/8/26 - 0520 67.8 29.6 24 9.9 NNW | 329 12.9 NNW | 338 68.2 67.1
5/8/26 - 0510 67.8 29.9 24 9.9 NNW | 331 13.4 NW | 326 68.2 67.1
5/8/26 - 0500 67.7 30.4 25 10.4 NW | 325 15.3 NW | 318 68.2 67.1
5/8/26 - 0450 67.6 30.6 25 10.9 NW | 324 14.3 NNW | 328 68.2 67.1
5/8/26 - 0440 67.9 30.8 25 10.8 NW | 323 15.6 NW | 322 68.2 67.1
5/8/26 - 0430 67.7 30.8 25 10.0 NW | 326 13.4 NW | 325 68.2 67.1
5/8/26 - 0420 67.8 31.1 25 10.3 NNW | 329 15.2 NNW | 335 68.2 67.1
5/8/26 - 0410 67.8 31.3 26 10.2 NNW | 328 14.3 NNW | 332 68.2 67.1
5/8/26 - 0400 67.9 31.6 26 11.2 NW | 325 15.7 NNW | 328 68.2 67.1
5/8/26 - 0350 67.9 32.0 26 10.9 NW | 326 16.1 NW | 320 68.2 67.1
5/8/26 - 0340 67.8 32.2 27 10.3 NW | 324 15.6 NW | 322 68.2 67.1
5/8/26 - 0330 67.5 32.4 27 9.4 NW | 325 13.2 NW | 314 68.2 67.1
5/8/26 - 0320 67.7 33.0 28 9.8 NW | 325 15.6 NW | 319 68.2 67.1
5/8/26 - 0310 67.7 33.2 28 10.1 NW | 326 14.5 NNW | 330 68.2 67.1
5/8/26 - 0300 67.9 33.3 28 11.1 NW | 325 15.9 NW | 322 68.2 67.1
5/8/26 - 0250 67.9 33.5 28 9.9 NW | 326 13.9 NW | 323 68.2 67.1
5/8/26 - 0240 68.0 33.9 28 10.7 NW | 323 15.1 NNW | 332 68.2 67.1
5/8/26 - 0230 67.9 33.9 28 11.0 NW | 323 15.6 NW | 326 68.1 67.1
5/8/26 - 0220 68.0 34.1 28 11.5 NW | 324 16.2 NW | 323 68.1 67.1
5/8/26 - 0210 67.9 34.6 29 11.6 NW | 324 16.7 NNW | 334 68.1 67.1
5/8/26 - 0200 67.9 35.4 30 12.7 NNW | 327 18.0 NNW | 337 68.1 67.1
5/8/26 - 0150 67.7 35.8 31 12.1 NW | 325 19.5 NW | 318 68.1 67.1
5/8/26 - 0140 67.8 36.0 31 12.0 NW | 326 17.7 NW | 326 68.1 67.1
5/8/26 - 0130 68.0 35.6 30 13.3 NNW | 328 19.5 NNW | 336 68.1 67.1
5/8/26 - 0120 67.7 35.7 31 12.1 NNW | 327 17.5 NNW | 337 67.9 67.1
5/8/26 - 0110 67.3 36.0 31 11.6 NNW | 327 18.6 NW | 323 67.5 67.1
5/8/26 - 0100 67.2 36.3 32 11.6 NW | 325 16.8 NNW | 330 80.6 63.4
5/8/26 - 0050 67.3 36.2 32 11.7 NW | 325 17.8 NNW | 347 80.6 63.4
5/8/26 - 0040 67.5 35.8 31 11.6 NW | 325 16.8 NNW | 336 80.6 63.4
5/8/26 - 0030 67.5 35.4 30 11.8 NW | 326 20.8 NW | 311 80.6 63.4
5/8/26 - 0020 67.6 34.6 29 13.4 NW | 323 20.2 NW | 318 80.6 63.4
5/8/26 - 0010 67.6 33.6 28 13.7 NW | 326 20.1 NNW | 339 80.6 63.4
5/8/26 - 0000 67.9 33.2 27 12.9 NW | 325 19.0 NNW | 334 80.6 63.4
5/7/26 - 2350 68.1 32.5 27 12.6 NW | 326 19.1 NW | 322 80.6 63.4
5/7/26 - 2340 68.3 31.5 25 12.8 NW | 324 19.2 NW | 317 80.6 63.4
5/7/26 - 2330 68.2 30.8 25 12.6 NW | 326 19.5 NW | 318 80.6 63.4
5/7/26 - 2320 68.2 30.0 24 11.9 NNW | 333 17.1 NNW | 327 80.6 63.4
5/7/26 - 2310 68.7 29.7 23 12.8 NNW | 332 19.6 NNW | 341 80.6 63.4
5/7/26 - 2300 68.8 29.6 23 12.5 NNW | 335 17.1 NNW | 346 80.6 63.4
5/7/26 - 2250 68.0 30.0 24 12.5 NW | 322 19.7 NNW | 345 80.6 63.4
5/7/26 - 2240 68.1 29.6 24 11.2 NW | 324 16.2 NNW | 343 80.6 63.4
5/7/26 - 2230 68.0 29.8 24 11.2 NW | 323 15.6 NW | 321 80.6 63.4
5/7/26 - 2220 68.0 30.2 24 10.8 NW | 320 16.1 NNW | 335 80.6 63.4
5/7/26 - 2210 68.3 30.5 24 11.5 NW | 322 16.7 NW | 306 80.6 63.4
5/7/26 - 2200 68.6 30.7 24 13.5 NNW | 328 20.0 NNW | 333 80.6 63.4
5/7/26 - 2150 68.4 31.1 25 13.1 NW | 326 19.1 NW | 319 80.6 63.4
5/7/26 - 2140 68.7 31.2 25 13.9 NNW | 329 20.4 NW | 326 80.6 63.4
5/7/26 - 2130 68.9 31.2 25 15.1 NNW | 332 20.3 NNW | 328 80.6 63.4
5/7/26 - 2120 68.6 31.6 25 13.6 NNW | 327 20.7 NW | 321 80.6 63.4
5/7/26 - 2110 68.3 33.0 27 12.0 NNW | 328 18.0 NNW | 339 80.6 63.4
5/7/26 - 2100 68.6 33.3 27 12.8 NW | 318 21.5 NW | 313 80.6 63.4
5/7/26 - 2050 68.7 32.0 26 12.6 NW | 320 20.6 NW | 320 80.6 63.4
5/7/26 - 2040 68.9 32.8 26 11.9 NNW | 331 18.2 N | 354 80.6 63.4
5/7/26 - 2030 69.2 34.2 27 13.0 NNW | 342 18.4 N | 0 80.6 63.4
5/7/26 - 2020 69.5 34.7 28 14.0 NNW | 345 19.6 N | 0 80.6 63.4
5/7/26 - 2010 69.3 34.2 27 11.7 NNW | 338 20.6 N | 10 80.6 63.4
5/7/26 - 2000 69.5 34.9 28 10.5 NNW | 329 16.3 NNW | 327 80.6 63.4
5/7/26 - 1950 69.6 35.7 29 9.2 NNW | 335 14.5 NNW | 332 80.6 63.4
5/7/26 - 1940 70.1 36.8 29 8.7 NNW | 329 13.4 NNW | 328 80.6 63.4
5/7/26 - 1930 70.7 38.2 31 9.2 NNW | 337 14.6 N | 354 80.6 63.4
5/7/26 - 1920 71.5 40.0 32 9.6 NNW | 341 14.8 NNE | 26 80.6 63.4
5/7/26 - 1910 72.2 41.5 33 10.1 NNW | 346 16.3 NW | 326 80.6 63.4
5/7/26 - 1900 72.7 41.9 33 10.3 N | 5 16.4 N | 11 80.6 63.4
5/7/26 - 1850 73.5 42.2 32 10.3 N | 6 18.5 NNE | 14 80.6 63.4
5/7/26 - 1840 74.3 42.6 32 9.8 N | 7 16.2 N | 354 80.6 63.4
5/7/26 - 1830 74.8 42.9 32 10.5 N | 4 17.0 NNE | 32 80.6 63.4
5/7/26 - 1820 75.1 42.8 31 10.7 N | 11 16.4 NNE | 30 80.6 63.4
5/7/26 - 1810 75.5 43.5 32 12.6 N | 11 20.6 NNE | 15 80.6 63.4
5/7/26 - 1800 75.8 43.8 32 13.7 NNE | 15 20.8 N | 6 80.6 63.4
5/7/26 - 1750 76.8 42.2 29 13.4 NNE | 15 21.6 N | 2 80.6 63.4
5/7/26 - 1740 77.0 42.6 29 14.4 NNE | 16 23.9 NNE | 20 80.6 63.4
5/7/26 - 1730 77.3 40.1 26 12.9 NNE | 12 18.7 NNE | 20 80.6 63.4
5/7/26 - 1720 77.4 40.0 26 13.6 NNE | 13 20.2 N | 354 80.6 63.4
5/7/26 - 1710 77.8 41.2 27 15.5 N | 9 22.8 N | 0 80.6 63.4
5/7/26 - 1700 78.0 39.6 25 14.6 NNE | 17 24.3 N | 4 80.6 63.4
5/7/26 - 1650 79.0 38.3 23 13.5 NNE | 12 22.6 N | 11 80.6 63.4
5/7/26 - 1640 79.1 37.7 23 12.5 NNE | 15 21.2 NNE | 23 80.6 63.4
5/7/26 - 1630 79.3 33.3 19 8.9 ENE | 62 18.3 NE | 43 80.6 63.4
5/7/26 - 1620 79.9 27.1 14 1.4 W | 263 4.2 SSW | 195 80.6 63.4
5/7/26 - 1610 79.3 27.1 15 3.9 SW | 220 9.2 SSW | 201 80.5 63.4
5/7/26 - 1600 79.2 27.0 15 6.7 SSE | 168 14.8 SSE | 155 80.5 63.4
5/7/26 - 1550 78.9 26.9 15 6.4 SSE | 159 16.1 SE | 140 80.5 63.4
5/7/26 - 1540 78.7 27.0 15 8.3 SE | 143 16.4 SE | 132 80.5 63.4
5/7/26 - 1530 79.1 27.1 15 8.8 SE | 137 19.8 SE | 137 80.5 63.4
5/7/26 - 1520 78.9 27.2 15 10.1 SE | 143 17.5 SE | 140 80.5 63.4
5/7/26 - 1510 79.4 27.3 15 7.7 SE | 130 18.8 SSE | 166 80.5 63.4
5/7/26 - 1500 78.1 26.9 15 5.5 SE | 128 13.3 SSE | 151 79.6 63.4
5/7/26 - 1450 78.8 27.1 15 7.8 SSE | 148 15.2 SSE | 158 79.6 63.4
5/7/26 - 1440 78.8 27.2 15 7.1 SE | 145 15.7 SSE | 159 79.4 63.4
5/7/26 - 1430 77.5 26.4 15 5.1 SE | 141 11.8 S | 178 78.8 63.4
5/7/26 - 1420 78.3 26.7 15 9.2 S | 180 16.5 SSE | 148 78.8 63.4
5/7/26 - 1410 77.6 25.9 15 8.8 SSE | 166 16.5 SSE | 154 78.3 63.4
5/7/26 - 1400 77.8 25.4 14 9.7 SE | 139 16.3 SSE | 152 78.2 63.4
5/7/26 - 1350 77.3 24.8 14 7.4 S | 170 18.3 S | 171 78.2 63.4
5/7/26 - 1340 77.1 24.6 14 4.9 SSW | 204 10.5 SSE | 168 78.2 63.4
5/7/26 - 1330 77.1 23.8 14 6.0 SE | 146 13.7 S | 169 78.0 63.4
5/7/26 - 1320 77.0 23.5 14 8.6 SE | 130 14.3 SSE | 162 78.0 63.4
5/7/26 - 1310 76.8 23.4 14 5.4 E | 96 18.0 E | 85 78.0 63.4
5/7/26 - 1300 77.1 25.0 14 4.0 ESE | 121 8.3 SSE | 147 78.0 63.4
5/7/26 - 1250 76.5 24.1 14 6.3 ESE | 105 12.8 SE | 137 77.5 63.4
5/7/26 - 1240 76.9 25.6 15 6.4 SE | 145 11.8 SSE | 147 77.3 63.4
5/7/26 - 1230 76.7 24.4 14 5.9 SSW | 196 14.0 SSE | 160 77.3 63.4
5/7/26 - 1220 76.8 24.4 14 5.6 S | 176 11.7 S | 169 77.3 63.4
5/7/26 - 1210 76.3 24.8 15 5.8 S | 177 12.5 SSE | 164 77.2 63.4
5/7/26 - 1200 76.5 24.0 14 6.3 S | 182 14.2 S | 184 77.0 63.4
5/7/26 - 1150 76.2 25.9 15 5.7 S | 188 10.3 S | 186 76.9 63.4
5/7/26 - 1140 75.4 28.2 17 6.2 SE | 137 11.2 ESE | 117 76.4 63.4
5/7/26 - 1130 75.3 29.1 18 6.7 SE | 146 12.1 SE | 140 75.8 63.4
5/7/26 - 1120 74.8 29.4 19 7.1 SE | 136 15.0 S | 170 75.3 63.4
5/7/26 - 1110 74.6 29.7 19 6.2 SSE | 166 12.9 SSE | 155 75.3 63.4
5/7/26 - 1100 74.2 30.3 20 8.6 SE | 144 13.4 SE | 135 75.3 63.4
5/7/26 - 1050 74.6 30.4 20 6.1 SE | 138 11.6 SE | 124 75.3 63.4
5/7/26 - 1040 73.5 29.9 20 6.8 SE | 142 13.9 SE | 131 74.3 63.4
5/7/26 - 1030 73.4 30.1 20 8.0 SE | 128 13.8 SE | 131 74.0 63.4
5/7/26 - 1020 73.2 30.2 20 8.2 SSE | 153 14.4 SSE | 148 74.0 63.4
5/7/26 - 1010 72.8 30.1 21 8.4 SE | 136 14.4 SE | 145 73.9 63.4
5/7/26 - 1000 73.3 30.2 20 7.5 SE | 137 14.5 SE | 134 73.9 63.4
5/7/26 - 0950 73.3 30.2 20 5.0 S | 174 10.9 SSW | 199 73.9 63.4
5/7/26 - 0940 73.3 30.2 20 5.8 S | 175 11.8 SSE | 161 73.9 63.4
5/7/26 - 0930 72.8 30.0 20 5.3 S | 177 10.8 S | 188 73.7 63.4
5/7/26 - 0920 72.9 30.4 21 3.9 SE | 138 7.5 SSE | 158 73.7 63.4
5/7/26 - 0910 72.2 29.8 21 4.7 SSE | 158 12.2 SE | 136 72.8 63.4
5/7/26 - 0900 72.3 29.4 20 3.5 ESE | 102 11.6 SE | 127 72.8 63.4
5/7/26 - 0850 72.0 30.5 21 4.8 ESE | 107 10.4 ESE | 111 72.8 63.4
5/7/26 - 0840 72.0 31.2 22 2.2 NE | 48 5.5 NE | 52 72.6 63.4
5/7/26 - 0830 71.3 30.9 22 2.9 NNE | 17 5.7 N | 3 71.6 63.4
5/7/26 - 0820 70.7 31.0 23 3.0 N | 354 5.8 N | 6 71.4 63.4
5/7/26 - 0810 70.1 30.9 23 3.4 N | 2 6.4 N | 10 70.5 63.4
5/7/26 - 0800 69.5 30.8 24 2.8 N | 357 4.7 NNE | 16 69.9 63.4
5/7/26 - 0750 69.2 30.8 24 2.9 N | 358 4.5 N | 350 69.5 63.4
5/7/26 - 0740 68.6 30.8 24 3.0 N | 355 4.5 N | 352 69.0 63.4
5/7/26 - 0730 67.7 31.0 25 2.1 N | 0 3.4 N | 354 68.1 63.4
Max 79.9 43.8 33 15.5 - 24.3 - 80.6 67.1
Avg 71.8 31.6 23 9.6 - 15.6 - - -
Min 67.2 23.4 14 1.4 - 3.4 - 67.5 63.4